フェアバンクス の空港の天気 - METARとTAF

フェアバンクス国際空港 ( PAFA / FAI ) - アメリカ アラスカ州フェアバンクス
飛行場実況気象(Metar)
観測時間04/26 20:53 AKDT (04/27 04:53 UTC)
風向・風速西 2m/s
視程10km以上
天気現象
少しの雲 雲底高度 1520m
全天の4割程度の雲 雲底高度 2130m
全天の8割程度の雲 雲底高度 6100m
気温5℃
湿度57%
気圧1015.4hPa
METARPAFA 270453Z 26003KT 10SM FEW050 SCT070 BKN200 05/M03 A2996 RMK AO2 SLP154 PRSNT WX VCSH N VIRGA T00501028
過去の天気等 Google飛行場航空写真 Wunderground天気予報

過去48時間のMETAR

飛行場予報(TAF)
発表時間: 4/26 15:20 AKDT (4/26 23:20 UTC)
予報対象時間: 26日16時 AKDT ~ 27日22時 AKDT
風向・風速南南西 5m/s 瞬間風速 8m/s
視程10km以上
天気現象周辺でしゅう雨
全天の4割程度の雲 雲底高度 1,070m
全天の8割程度の雲 雲底高度 2,440m
26日19時 AKDT から
風向・風速西南西 2m/s
視程10km以上
天気現象弱いしゅう雨
全天の8割程度の雲 雲底高度 1,220m
全天を覆う雲 雲底高度 2,440m
27日2時 AKDT から
風向・風速北東 2m/s
視程10km以上
全天の4割程度の雲 雲底高度 1,220m
全天の8割程度の雲 雲底高度 3,050m
PAFA 262320Z 2700/2806 20010G15KT P6SM VCSH SCT035 BKN080
FM270300 24004KT P6SM -SHRA BKN040 OVC080
FM271000 05004KT P6SM SCT040 BKN100